Time;durP1;ratioP1;P1;durP2;ratioP2;P2;SDS_P1;SDS_P2;PMS_P1;PMS_P2;Temp;Humidity;BMP_temperature;BMP_pressure;BME280_temperature;BME280_humidity;BME280_pressure;Samples;Min_cycle;Max_cycle;Signal;HPM_P1;HPM_P2
2024/01/20 00:00:50;;;;;;;19.27;16.27;;;1.10;99.90;;;;;;7371769;19;20140;-69
2024/01/20 00:03:17;;;;;;;19.88;16.40;;;1.10;99.90;;;;;;7371191;19;20018;-69
2024/01/20 00:05:44;;;;;;;22.60;17.98;;;1.00;99.90;;;;;;7373349;19;20032;-65
2024/01/20 00:08:10;;;;;;;20.90;18.40;;;1.10;99.90;;;;;;7371213;19;20037;-69
2024/01/20 00:10:37;;;;;;;22.92;19.02;;;1.10;99.90;;;;;;7372256;19;20027;-69
2024/01/20 00:13:10;;;;;;;24.88;18.20;;;1.00;99.90;;;;;;7371504;19;20026;-69
2024/01/20 00:15:39;;;;;;;32.38;20.13;;;1.00;99.90;;;;;;7374019;19;20386;-68
2024/01/20 00:18:05;;;;;;;26.48;19.27;;;1.00;99.90;;;;;;7369287;19;20101;-68
2024/01/20 00:20:31;;;;;;;27.20;18.95;;;0.90;99.90;;;;;;7367990;19;20545;-64
2024/01/20 00:22:57;;;;;;;24.17;19.33;;;0.80;99.90;;;;;;7372103;19;20805;-68
2024/01/20 00:25:24;;;;;;;23.85;19.00;;;0.80;99.90;;;;;;7369075;19;20010;-68
2024/01/20 00:27:51;;;;;;;26.15;20.55;;;0.70;99.90;;;;;;7371054;19;20018;-66
2024/01/20 00:30:17;;;;;;;28.50;21.33;;;0.70;99.90;;;;;;7371249;19;20111;-66
2024/01/20 00:32:43;;;;;;;23.48;20.88;;;0.70;99.90;;;;;;7370479;19;20055;-65
2024/01/20 00:35:10;;;;;;;28.58;21.42;;;0.70;99.90;;;;;;7369549;19;20458;-66
2024/01/20 00:37:37;;;;;;;24.85;22.20;;;0.80;99.90;;;;;;7371407;19;20030;-65
2024/01/20 00:40:04;;;;;;;25.63;22.88;;;0.80;99.90;;;;;;7371705;19;20494;-65
2024/01/20 00:42:31;;;;;;;25.48;22.15;;;0.80;99.90;;;;;;7372361;19;20009;-66
2024/01/20 00:44:57;;;;;;;25.23;22.48;;;0.80;99.90;;;;;;7369690;19;20027;-68
2024/01/20 00:47:23;;;;;;;26.55;22.52;;;0.80;99.90;;;;;;7369453;19;20011;-64
2024/01/20 00:49:50;;;;;;;30.35;23.63;;;0.80;99.90;;;;;;7373739;19;20018;-64
2024/01/20 00:52:20;;;;;;;26.80;23.85;;;0.80;99.90;;;;;;7370310;19;20312;-64
2024/01/20 00:54:46;;;;;;;30.33;23.45;;;0.80;99.90;;;;;;7372561;19;20795;-64
2024/01/20 00:57:12;;;;;;;25.73;23.05;;;0.80;99.90;;;;;;7378208;19;20014;-68
2024/01/20 00:59:39;;;;;;;26.15;23.35;;;0.70;99.90;;;;;;7377634;19;20427;-68
2024/01/20 01:02:05;;;;;;;26.92;23.92;;;0.70;99.90;;;;;;7376146;19;20018;-68
2024/01/20 01:04:32;;;;;;;31.38;25.33;;;0.70;99.90;;;;;;7375298;19;20021;-68
2024/01/20 01:06:58;;;;;;;26.88;23.90;;;0.70;99.90;;;;;;7380782;19;20015;-64
2024/01/20 01:09:24;;;;;;;30.10;26.27;;;0.60;99.90;;;;;;7375626;19;20026;-64
2024/01/20 01:11:50;;;;;;;30.58;24.48;;;0.70;99.90;;;;;;7378274;19;20022;-65
2024/01/20 01:14:16;;;;;;;31.05;25.48;;;0.70;99.90;;;;;;7378256;19;20022;-69
2024/01/20 01:16:44;;;;;;;33.90;27.98;;;0.70;99.90;;;;;;7375814;19;20353;-69
2024/01/20 01:19:10;;;;;;;30.52;26.33;;;0.70;99.90;;;;;;7376343;19;20356;-70
2024/01/20 01:21:36;;;;;;;31.90;26.88;;;0.70;99.90;;;;;;7377249;19;20110;-69
2024/01/20 01:24:03;;;;;;;30.10;25.65;;;0.60;99.90;;;;;;7371728;19;20922;-69
2024/01/20 01:26:30;;;;;;;29.40;25.50;;;0.60;99.90;;;;;;7373538;19;20019;-69
2024/01/20 01:28:56;;;;;;;33.65;26.80;;;0.60;99.90;;;;;;7377200;19;20709;-69
2024/01/20 01:31:22;;;;;;;29.48;26.02;;;0.60;99.90;;;;;;7371815;19;20026;-65
2024/01/20 01:33:49;;;;;;;30.30;25.83;;;0.60;99.90;;;;;;7374125;19;20019;-70
2024/01/20 01:36:15;;;;;;;29.70;25.65;;;0.60;99.90;;;;;;7374176;19;20019;-64
2024/01/20 01:38:41;;;;;;;33.30;27.55;;;0.60;99.90;;;;;;7378282;19;20469;-69
2024/01/20 01:41:07;;;;;;;32.33;26.33;;;0.60;99.90;;;;;;7371906;19;20239;-69
2024/01/20 01:43:33;;;;;;;30.90;27.55;;;0.60;99.90;;;;;;7372513;19;20022;-69
2024/01/20 01:46:00;;;;;;;30.83;27.50;;;0.70;99.90;;;;;;7374331;19;20085;-69
2024/01/20 01:48:26;;;;;;;35.95;25.63;;;0.70;99.90;;;;;;7369790;19;20045;-69
2024/01/20 01:50:55;;;;;;;32.50;28.35;;;0.70;99.90;;;;;;7370713;19;20019;-68
2024/01/20 01:53:22;;;;;;;35.33;26.23;;;0.70;99.90;;;;;;7375783;19;20022;-65
2024/01/20 01:55:49;;;;;;;30.27;26.48;;;0.60;99.90;;;;;;7377940;19;20015;-69
2024/01/20 01:58:18;;;;;;;30.95;26.77;;;0.70;99.90;;;;;;7376423;19;20053;-65
2024/01/20 02:00:45;;;;;;;30.40;27.05;;;0.70;99.90;;;;;;7374283;19;20467;-64
2024/01/20 02:03:11;;;;;;;31.48;27.05;;;0.70;99.90;;;;;;7375361;19;20018;-64
2024/01/20 02:05:38;;;;;;;33.13;27.73;;;0.70;99.90;;;;;;7372867;19;20041;-65
2024/01/20 02:08:05;;;;;;;32.55;25.75;;;0.70;99.90;;;;;;7372111;19;20027;-64
2024/01/20 02:10:33;;;;;;;33.92;28.60;;;0.70;99.90;;;;;;7375020;19;20022;-64
2024/01/20 02:13:00;;;;;;;37.20;28.92;;;0.70;99.90;;;;;;7366006;19;20566;-69
2024/01/20 02:15:28;;;;;;;31.00;26.83;;;0.80;99.90;;;;;;7374920;19;20617;-70
2024/01/20 02:17:55;;;;;;;31.67;26.23;;;0.70;99.90;;;;;;7375063;19;20015;-69
2024/01/20 02:20:23;;;;;;;34.22;28.27;;;0.80;99.90;;;;;;7374490;19;20637;-64
2024/01/20 02:22:49;;;;;;;33.78;28.90;;;0.70;99.90;;;;;;7374587;19;20019;-69
2024/01/20 02:25:16;;;;;;;34.22;29.33;;;0.70;99.90;;;;;;7366114;19;20662;-70
2024/01/20 02:27:43;;;;;;;32.47;28.80;;;0.70;99.90;;;;;;7375461;19;20146;-69
2024/01/20 02:30:10;;;;;;;34.72;26.70;;;0.70;99.90;;;;;;7374633;19;20022;-69
2024/01/20 02:32:36;;;;;;;32.97;27.75;;;0.80;99.90;;;;;;7376327;19;20737;-64
2024/01/20 02:35:03;;;;;;;38.92;29.48;;;0.70;99.90;;;;;;7373350;19;20721;-64
2024/01/20 02:37:30;;;;;;;38.40;31.17;;;0.70;99.90;;;;;;7372916;19;20036;-64
2024/01/20 02:39:57;;;;;;;35.58;28.40;;;0.60;99.90;;;;;;7373985;19;20025;-70
2024/01/20 02:42:24;;;;;;;33.03;27.60;;;0.70;99.90;;;;;;7372779;19;20039;-65
2024/01/20 02:44:50;;;;;;;37.85;32.15;;;0.60;99.90;;;;;;7375624;19;20018;-69
2024/01/20 02:47:18;;;;;;;35.55;29.13;;;0.60;99.90;;;;;;7369350;19;20093;-65
2024/01/20 02:49:44;;;;;;;35.67;29.70;;;0.70;99.90;;;;;;7379071;19;20014;-65
2024/01/20 02:52:10;;;;;;;31.60;27.05;;;0.80;99.90;;;;;;7371832;19;20063;-64
2024/01/20 02:54:36;;;;;;;31.83;27.55;;;0.70;99.90;;;;;;7372389;19;20015;-69
2024/01/20 02:57:04;;;;;;;35.65;29.27;;;0.70;99.90;;;;;;7370089;19;20022;-68
2024/01/20 02:59:32;;;;;;;35.50;28.60;;;0.70;99.90;;;;;;7374074;19;20029;-70
2024/01/20 03:01:59;;;;;;;34.10;29.58;;;0.70;99.90;;;;;;7372936;19;20026;-70
2024/01/20 03:04:25;;;;;;;34.35;29.10;;;0.70;99.90;;;;;;7373356;19;20018;-65
2024/01/20 03:06:51;;;;;;;35.97;28.90;;;0.70;99.90;;;;;;7366611;19;20023;-65
2024/01/20 03:09:18;;;;;;;36.00;31.52;;;0.60;99.90;;;;;;7371625;19;20026;-66
2024/01/20 03:11:44;;;;;;;38.10;29.15;;;0.60;99.90;;;;;;7374655;19;20487;-65
2024/01/20 03:14:10;;;;;;;37.45;30.55;;;0.60;99.90;;;;;;7372680;19;20019;-68
2024/01/20 03:16:37;;;;;;;32.75;28.58;;;0.60;99.90;;;;;;7371116;19;20021;-69
2024/01/20 03:19:04;;;;;;;38.25;32.03;;;0.60;99.90;;;;;;7375329;19;20037;-70
2024/01/20 03:21:30;;;;;;;39.65;29.75;;;0.60;99.90;;;;;;7374177;19;20880;-65
2024/01/20 03:23:57;;;;;;;33.10;27.63;;;0.60;99.90;;;;;;7370120;19;20397;-65
2024/01/20 03:26:23;;;;;;;34.05;27.67;;;0.50;99.90;;;;;;7371634;19;20072;-66
2024/01/20 03:28:50;;;;;;;35.88;28.40;;;0.50;99.90;;;;;;7372936;19;20518;-70
2024/01/20 03:31:20;;;;;;;36.35;28.90;;;0.50;99.90;;;;;;7373287;19;20090;-71
2024/01/20 03:33:46;;;;;;;35.60;29.98;;;0.50;99.90;;;;;;7372670;19;20026;-63
2024/01/20 03:36:12;;;;;;;34.90;28.50;;;0.50;99.90;;;;;;7375614;19;20035;-63
2024/01/20 03:38:38;;;;;;;38.05;28.58;;;0.50;99.90;;;;;;7376078;19;20750;-64
2024/01/20 03:41:05;;;;;;;35.05;30.73;;;0.50;99.90;;;;;;7373768;19;20037;-64
2024/01/20 03:43:31;;;;;;;38.72;29.45;;;0.50;99.90;;;;;;7368487;19;20367;-69
2024/01/20 03:45:57;;;;;;;35.85;27.73;;;0.50;99.90;;;;;;7371763;19;20538;-70
2024/01/20 03:48:23;;;;;;;35.35;28.85;;;0.60;99.90;;;;;;7370847;19;20050;-69
2024/01/20 03:50:49;;;;;;;35.63;28.08;;;0.50;99.90;;;;;;7373013;19;20049;-69
2024/01/20 03:53:16;;;;;;;37.92;30.15;;;0.40;99.90;;;;;;7372716;19;20019;-70
2024/01/20 03:55:42;;;;;;;36.80;28.70;;;0.40;99.90;;;;;;7372068;19;20022;-69
2024/01/20 03:58:08;;;;;;;44.83;31.05;;;0.40;99.90;;;;;;7370037;19;20011;-64
2024/01/20 04:00:34;;;;;;;36.22;30.73;;;0.40;99.90;;;;;;7372714;19;20857;-64
2024/01/20 04:03:02;;;;;;;46.47;31.33;;;0.40;99.90;;;;;;7369572;19;20490;-64
2024/01/20 04:05:28;;;;;;;39.90;30.52;;;0.40;99.90;;;;;;7372574;19;20628;-69
2024/01/20 04:07:55;;;;;;;39.35;29.55;;;0.50;99.90;;;;;;7368916;19;20014;-69
2024/01/20 04:10:21;;;;;;;42.88;31.15;;;0.50;99.90;;;;;;7373806;19;20029;-65
2024/01/20 04:12:48;;;;;;;39.25;29.63;;;0.50;99.90;;;;;;7369845;19;20022;-69
2024/01/20 04:15:14;;;;;;;41.05;30.17;;;0.50;99.90;;;;;;7372358;19;20018;-64
2024/01/20 04:17:40;;;;;;;40.53;29.02;;;0.60;99.90;;;;;;7367746;19;20034;-64
2024/01/20 04:20:08;;;;;;;43.10;28.55;;;0.50;99.90;;;;;;7368190;19;20022;-65
2024/01/20 04:22:34;;;;;;;38.70;29.48;;;0.50;99.90;;;;;;7368917;19;20034;-64
2024/01/20 04:25:00;;;;;;;37.83;28.00;;;0.50;99.90;;;;;;7363330;19;20057;-64
2024/01/20 04:27:26;;;;;;;38.72;29.67;;;0.50;99.90;;;;;;7367732;19;20900;-64
2024/01/20 04:29:53;;;;;;;41.47;30.05;;;0.40;99.90;;;;;;7365822;19;20010;-65
2024/01/20 04:32:19;;;;;;;43.50;29.33;;;0.30;99.90;;;;;;7370288;19;20023;-64
2024/01/20 04:34:45;;;;;;;39.47;29.00;;;0.30;99.90;;;;;;7369729;19;20725;-65
2024/01/20 04:37:12;;;;;;;42.53;30.70;;;0.20;99.90;;;;;;7367365;19;20022;-65
2024/01/20 04:39:38;;;;;;;43.50;29.15;;;0.20;99.90;;;;;;7375537;19;20387;-69
2024/01/20 04:42:04;;;;;;;43.30;31.45;;;0.20;99.90;;;;;;7375751;19;20038;-69
2024/01/20 04:44:31;;;;;;;40.85;28.83;;;0.10;99.90;;;;;;7375142;19;20095;-65
2024/01/20 04:46:58;;;;;;;43.42;30.52;;;0.10;99.90;;;;;;7377270;19;20058;-65
2024/01/20 04:49:24;;;;;;;42.20;30.70;;;0.10;99.90;;;;;;7373417;19;20026;-64
2024/01/20 04:51:50;;;;;;;44.47;32.25;;;0.00;99.90;;;;;;7372068;19;20114;-64
2024/01/20 04:54:17;;;;;;;52.90;31.73;;;0.00;99.90;;;;;;7376335;19;20022;-65
2024/01/20 04:56:44;;;;;;;49.20;33.80;;;0.00;99.90;;;;;;7375833;19;20015;-64
2024/01/20 04:59:10;;;;;;;49.97;32.45;;;0.00;99.90;;;;;;7373177;19;20010;-64
2024/01/20 05:01:36;;;;;;;52.17;33.40;;;0.00;99.90;;;;;;7373863;19;20019;-64
2024/01/20 05:04:03;;;;;;;52.63;32.95;;;0.00;99.90;;;;;;7371595;19;20082;-64
2024/01/20 05:06:29;;;;;;;46.28;32.60;;;-0.10;99.90;;;;;;7372501;19;20136;-64
2024/01/20 05:08:55;;;;;;;54.60;33.55;;;-0.10;99.90;;;;;;7374806;19;20089;-69
2024/01/20 05:11:21;;;;;;;49.17;33.20;;;-0.10;99.90;;;;;;7372843;19;20015;-69
2024/01/20 05:13:48;;;;;;;54.17;31.67;;;-0.10;99.90;;;;;;7371391;19;20025;-68
2024/01/20 05:16:15;;;;;;;51.83;32.25;;;-0.10;99.90;;;;;;7372467;19;20094;-69
2024/01/20 05:18:42;;;;;;;56.28;33.08;;;-0.10;99.90;;;;;;7371007;19;20014;-68
2024/01/20 05:21:13;;;;;;;48.88;32.20;;;-0.10;99.90;;;;;;7370899;19;20018;-68
2024/01/20 05:23:39;;;;;;;51.78;31.23;;;-0.10;99.90;;;;;;7371123;19;20018;-68
2024/01/20 05:26:05;;;;;;;56.45;33.53;;;-0.10;99.90;;;;;;7374578;19;20066;-68
2024/01/20 05:28:32;;;;;;;53.40;33.53;;;-0.10;99.90;;;;;;7370878;19;20018;-68
2024/01/20 05:30:59;;;;;;;54.80;32.88;;;-0.10;99.90;;;;;;7374097;19;20039;-69
2024/01/20 05:33:28;;;;;;;54.70;34.13;;;-0.10;99.90;;;;;;7370880;19;20023;-69
2024/01/20 05:35:56;;;;;;;51.15;30.88;;;-0.10;99.90;;;;;;7373968;19;20030;-68
2024/01/20 05:38:23;;;;;;;51.97;33.72;;;-0.10;99.90;;;;;;7365632;19;20025;-68
2024/01/20 05:40:49;;;;;;;51.72;32.92;;;-0.10;99.90;;;;;;7374606;19;20110;-69
2024/01/20 05:43:15;;;;;;;50.95;30.85;;;-0.20;99.90;;;;;;7368667;19;20483;-68
2024/01/20 05:45:42;;;;;;;50.80;30.90;;;-0.20;99.90;;;;;;7371313;19;20018;-63
2024/01/20 05:48:08;;;;;;;53.50;31.45;;;-0.20;99.90;;;;;;7367736;19;20018;-68
2024/01/20 05:50:34;;;;;;;52.00;33.17;;;-0.30;99.90;;;;;;7371263;19;20109;-63
2024/01/20 05:53:00;;;;;;;54.58;33.45;;;-0.30;99.90;;;;;;7372851;19;20458;-63
2024/01/20 05:55:27;;;;;;;51.45;31.90;;;-0.30;99.90;;;;;;7370988;19;20093;-63
2024/01/20 05:57:53;;;;;;;53.13;32.70;;;-0.30;99.90;;;;;;7373370;19;20010;-69
2024/01/20 06:00:21;;;;;;;51.25;31.83;;;-0.30;99.90;;;;;;7371329;19;20015;-69
2024/01/20 06:02:48;;;;;;;52.70;33.65;;;-0.30;99.90;;;;;;7365739;19;20776;-69
2024/01/20 06:05:14;;;;;;;52.20;33.40;;;-0.30;99.90;;;;;;7367120;19;20480;-63
2024/01/20 06:07:41;;;;;;;54.88;33.67;;;-0.20;99.90;;;;;;7369448;19;20033;-64
2024/01/20 06:10:07;;;;;;;55.50;32.55;;;-0.20;99.90;;;;;;7369894;19;20516;-68
2024/01/20 06:12:34;;;;;;;52.35;30.00;;;-0.10;99.90;;;;;;7372407;19;20022;-70
2024/01/20 06:15:00;;;;;;;50.00;29.55;;;-0.10;99.90;;;;;;7370714;19;20029;-63
2024/01/20 06:17:27;;;;;;;52.65;32.05;;;-0.20;99.90;;;;;;7371280;19;20450;-64
2024/01/20 06:19:54;;;;;;;57.63;33.53;;;-0.20;99.90;;;;;;7371563;19;20813;-64
2024/01/20 06:22:21;;;;;;;54.00;30.00;;;-0.20;99.90;;;;;;7371900;19;20045;-65
2024/01/20 06:24:52;;;;;;;53.75;30.85;;;-0.20;99.90;;;;;;7370159;19;20106;-69
2024/01/20 06:27:18;;;;;;;49.70;31.23;;;-0.20;99.90;;;;;;7369845;19;20381;-64
2024/01/20 06:29:45;;;;;;;57.80;30.25;;;-0.20;99.90;;;;;;7370072;19;20057;-69
2024/01/20 06:32:12;;;;;;;44.47;28.73;;;-0.20;99.90;;;;;;7371629;19;20013;-67
2024/01/20 06:34:39;;;;;;;52.78;30.20;;;-0.20;99.90;;;;;;7371611;19;20097;-67
2024/01/20 06:37:05;;;;;;;51.30;30.98;;;-0.10;99.90;;;;;;7368573;19;20027;-67
2024/01/20 06:39:31;;;;;;;49.33;30.67;;;-0.20;99.90;;;;;;7368243;19;20033;-66
2024/01/20 06:41:57;;;;;;;47.50;30.38;;;-0.20;99.90;;;;;;7369217;19;20047;-62
2024/01/20 06:44:23;;;;;;;47.72;28.77;;;-0.20;99.90;;;;;;7371304;19;20022;-69
2024/01/20 06:46:50;;;;;;;44.40;27.83;;;-0.20;99.90;;;;;;7367716;19;20014;-63
2024/01/20 06:49:16;;;;;;;51.40;29.23;;;-0.20;99.90;;;;;;7367794;19;20026;-63
2024/01/20 06:51:43;;;;;;;51.55;31.90;;;-0.20;99.90;;;;;;7368887;19;20604;-63
2024/01/20 06:54:09;;;;;;;53.13;32.17;;;-0.20;99.90;;;;;;7372550;19;20105;-63
2024/01/20 06:56:35;;;;;;;51.17;29.30;;;-0.30;99.90;;;;;;7372488;19;20081;-67
2024/01/20 06:59:02;;;;;;;47.50;30.02;;;-0.20;99.90;;;;;;7371900;19;20452;-69
2024/01/20 07:01:28;;;;;;;50.80;30.80;;;-0.20;99.90;;;;;;7364978;19;20033;-64
2024/01/20 07:03:55;;;;;;;49.97;31.60;;;-0.20;99.90;;;;;;7370036;19;20636;-64
2024/01/20 07:06:25;;;;;;;52.78;30.10;;;-0.20;99.90;;;;;;7371158;19;20030;-66
2024/01/20 07:08:52;;;;;;;53.95;30.13;;;-0.20;99.90;;;;;;7371926;19;20475;-64
2024/01/20 07:11:18;;;;;;;48.67;30.13;;;-0.20;99.90;;;;;;7371768;19;20037;-64
2024/01/20 07:13:46;;;;;;;55.63;32.33;;;-0.30;99.90;;;;;;7373022;19;20022;-63
2024/01/20 07:16:15;;;;;;;56.35;31.00;;;-0.30;99.90;;;;;;7373541;19;20014;-63
2024/01/20 07:18:42;;;;;;;50.47;31.60;;;-0.30;99.90;;;;;;7365489;19;20010;-68
2024/01/20 07:21:08;;;;;;;49.15;30.42;;;-0.30;99.90;;;;;;7368612;19;20106;-63
2024/01/20 07:23:34;;;;;;;50.72;30.50;;;-0.40;99.90;;;;;;7364557;19;20050;-61
2024/01/20 07:26:00;;;;;;;55.42;33.78;;;-0.40;99.90;;;;;;7364598;19;20022;-64
2024/01/20 07:28:27;;;;;;;54.45;31.02;;;-0.40;99.90;;;;;;7366179;19;20917;-64
2024/01/20 07:30:54;;;;;;;54.55;33.55;;;-0.40;99.90;;;;;;7366335;19;20018;-63
2024/01/20 07:33:20;;;;;;;65.97;34.42;;;-0.40;99.90;;;;;;7360669;19;20578;-63
2024/01/20 07:35:47;;;;;;;51.03;31.63;;;-0.40;99.90;;;;;;7367120;19;20419;-63
2024/01/20 07:38:13;;;;;;;53.95;31.38;;;-0.40;99.90;;;;;;7376920;19;20116;-63
2024/01/20 07:40:40;;;;;;;51.97;31.33;;;-0.40;99.90;;;;;;7374652;19;20017;-63
2024/01/20 07:43:06;;;;;;;53.95;31.45;;;-0.40;99.90;;;;;;7362831;19;20014;-63
2024/01/20 07:45:33;;;;;;;51.65;30.80;;;-0.40;99.90;;;;;;7358951;19;20026;-64
2024/01/20 07:48:00;;;;;;;52.05;33.35;;;-0.40;99.90;;;;;;7364173;19;20037;-64
2024/01/20 07:50:26;;;;;;;48.97;31.00;;;-0.30;99.90;;;;;;7372998;19;20018;-63
2024/01/20 07:52:52;;;;;;;52.38;31.90;;;-0.30;99.90;;;;;;7369074;19;20029;-64
2024/01/20 07:55:18;;;;;;;57.50;33.35;;;-0.20;99.90;;;;;;7371101;19;20041;-62
2024/01/20 07:57:45;;;;;;;54.08;30.63;;;-0.20;99.90;;;;;;7370867;19;20489;-63
2024/01/20 08:00:11;;;;;;;50.65;31.42;;;-0.10;99.90;;;;;;7370489;19;20014;-63
2024/01/20 08:02:39;;;;;;;51.80;32.70;;;-0.10;99.90;;;;;;7365750;19;20019;-63
2024/01/20 08:05:05;;;;;;;52.83;32.50;;;0.00;99.90;;;;;;7371360;19;20096;-64
2024/01/20 08:07:32;;;;;;;48.33;30.77;;;0.00;99.90;;;;;;7368635;19;20049;-64
2024/01/20 08:09:59;;;;;;;47.90;28.98;;;0.00;99.90;;;;;;7372088;19;20019;-64
2024/01/20 08:12:25;;;;;;;49.17;29.73;;;0.10;99.90;;;;;;7366816;19;20372;-61
2024/01/20 08:14:51;;;;;;;45.92;29.85;;;0.20;99.90;;;;;;7370398;19;20030;-64
2024/01/20 08:17:18;;;;;;;45.60;28.15;;;0.30;99.90;;;;;;7367940;19;20025;-63
2024/01/20 08:19:45;;;;;;;38.70;26.13;;;0.40;99.90;;;;;;7372172;19;20521;-64
2024/01/20 08:22:12;;;;;;;47.88;29.90;;;0.50;99.90;;;;;;7368154;19;20022;-63
2024/01/20 08:24:38;;;;;;;48.42;30.08;;;0.60;99.90;;;;;;7368117;19;20025;-63
2024/01/20 08:27:05;;;;;;;45.00;28.98;;;0.60;99.90;;;;;;7370743;19;20015;-70
2024/01/20 08:29:31;;;;;;;45.85;28.05;;;0.60;99.90;;;;;;7367542;19;20598;-64
2024/01/20 08:31:57;;;;;;;43.78;26.77;;;0.70;99.90;;;;;;7369903;19;20011;-64
2024/01/20 08:34:24;;;;;;;44.50;27.23;;;0.80;99.90;;;;;;7370376;19;20023;-64
2024/01/20 08:36:51;;;;;;;44.88;28.52;;;0.80;99.90;;;;;;7376365;19;20424;-65
2024/01/20 08:39:21;;;;;;;44.20;27.88;;;0.90;99.90;;;;;;7369553;19;20019;-65
2024/01/20 08:41:48;;;;;;;48.17;29.15;;;1.00;99.90;;;;;;7369236;19;20027;-65
2024/01/20 08:44:15;;;;;;;41.95;25.27;;;1.10;99.90;;;;;;7367881;19;20023;-63
2024/01/20 08:46:42;;;;;;;42.28;26.95;;;1.00;99.90;;;;;;7370526;19;20026;-65
2024/01/20 08:49:09;;;;;;;38.95;27.10;;;1.10;99.90;;;;;;7370573;19;20048;-64
2024/01/20 08:51:36;;;;;;;39.75;25.35;;;1.20;99.90;;;;;;7369128;19;20077;-62
2024/01/20 08:54:05;;;;;;;43.45;27.67;;;1.40;99.90;;;;;;7371143;19;20047;-65
2024/01/20 08:56:32;;;;;;;39.05;24.70;;;1.50;99.90;;;;;;7367740;19;20117;-69
2024/01/20 08:58:59;;;;;;;40.25;25.35;;;1.50;99.90;;;;;;7367153;19;20025;-69
2024/01/20 09:01:26;;;;;;;41.22;27.05;;;1.40;99.90;;;;;;7370701;19;20521;-70
2024/01/20 09:03:53;;;;;;;41.70;26.35;;;1.30;99.90;;;;;;7371636;19;20367;-70
2024/01/20 09:06:19;;;;;;;39.20;26.20;;;1.20;99.90;;;;;;7370975;19;20100;-70
2024/01/20 09:08:46;;;;;;;43.55;27.00;;;1.10;99.90;;;;;;7371129;19;20054;-70
2024/01/20 09:11:12;;;;;;;39.28;27.05;;;1.00;99.90;;;;;;7371084;19;20018;-65
2024/01/20 09:13:38;;;;;;;39.00;26.88;;;1.00;99.90;;;;;;7368897;19;20022;-70
2024/01/20 09:16:05;;;;;;;41.90;25.58;;;1.00;99.90;;;;;;7370316;19;20027;-70
2024/01/20 09:18:31;;;;;;;40.60;26.15;;;1.00;99.90;;;;;;7371769;19;20410;-70
2024/01/20 09:20:57;;;;;;;41.45;24.73;;;1.00;99.90;;;;;;7376347;19;20590;-71
2024/01/20 09:23:23;;;;;;;41.60;26.77;;;1.00;99.90;;;;;;7377575;19;20070;-70
2024/01/20 09:25:49;;;;;;;39.55;26.30;;;1.00;99.90;;;;;;7377260;19;20018;-70
2024/01/20 09:28:15;;;;;;;45.35;26.42;;;1.00;99.90;;;;;;7377321;19;21514;-70
2024/01/20 09:30:42;;;;;;;42.78;26.27;;;1.00;99.90;;;;;;7369482;19;21351;-70
2024/01/20 09:33:08;;;;;;;45.42;26.95;;;1.00;99.90;;;;;;7371665;19;20018;-70
2024/01/20 09:35:34;;;;;;;45.35;26.92;;;1.00;99.90;;;;;;7372918;19;20014;-70
2024/01/20 09:38:00;;;;;;;41.40;25.35;;;1.00;99.90;;;;;;7377863;19;20082;-70
2024/01/20 09:40:29;;;;;;;36.85;24.75;;;1.00;99.90;;;;;;7375435;19;20048;-65
2024/01/20 09:42:58;;;;;;;40.58;25.38;;;1.10;99.90;;;;;;7377823;19;20037;-65
2024/01/20 09:45:25;;;;;;;44.03;26.98;;;1.20;99.90;;;;;;7374723;19;20806;-65
2024/01/20 09:47:51;;;;;;;37.20;25.40;;;1.30;99.90;;;;;;7377337;19;20018;-64
2024/01/20 09:50:18;;;;;;;40.63;24.15;;;1.30;99.90;;;;;;7374465;19;20047;-65
2024/01/20 09:53:00;;;;;;;39.67;25.25;;;1.40;99.90;;;;;;7374283;19;20033;-63
2024/01/20 09:55:29;;;;;;;42.67;24.90;;;1.50;99.90;;;;;;7372603;19;20480;-65
2024/01/20 09:57:57;;;;;;;38.10;23.25;;;1.80;99.90;;;;;;7373475;19;20509;-65
2024/01/20 10:00:24;;;;;;;39.15;25.15;;;1.70;99.90;;;;;;7374743;19;20027;-65
2024/01/20 10:02:51;;;;;;;38.88;23.33;;;1.70;99.90;;;;;;7372395;19;20118;-65
2024/01/20 10:05:24;;;;;;;37.65;24.67;;;1.80;99.90;;;;;;7373852;19;20098;-68
2024/01/20 10:07:51;;;;;;;40.08;22.70;;;1.70;99.90;;;;;;7372354;19;20391;-69
2024/01/20 10:10:20;;;;;;;34.58;22.58;;;1.80;99.90;;;;;;7374621;19;20895;-68
2024/01/20 10:12:49;;;;;;;35.00;21.45;;;1.70;99.90;;;;;;7373799;19;20021;-68
2024/01/20 10:15:26;;;;;;;35.83;23.90;;;1.70;99.90;;;;;;7373140;19;20786;-67
2024/01/20 10:17:57;;;;;;;32.50;22.30;;;1.70;99.90;;;;;;7375094;19;20116;-68
2024/01/20 10:20:26;;;;;;;35.35;23.67;;;1.70;99.90;;;;;;7373955;19;20018;-68
2024/01/20 10:22:53;;;;;;;37.70;23.88;;;1.70;99.90;;;;;;7374926;19;20131;-68
2024/01/20 10:25:20;;;;;;;34.13;23.20;;;1.70;99.90;;;;;;7371119;19;20093;-68
2024/01/20 10:27:48;;;;;;;38.72;23.13;;;1.70;99.90;;;;;;7371991;19;20483;-68
2024/01/20 10:30:20;;;;;;;39.67;24.13;;;1.70;99.90;;;;;;7373377;19;20041;-68
2024/01/20 10:32:48;;;;;;;35.95;23.95;;;1.70;99.90;;;;;;7373207;19;20026;-68
2024/01/20 10:35:14;;;;;;;35.05;22.60;;;1.80;99.90;;;;;;7372372;19;20581;-68
2024/01/20 10:37:46;;;;;;;35.53;22.38;;;1.80;99.90;;;;;;7374314;19;20025;-68
2024/01/20 10:40:13;;;;;;;32.67;20.75;;;1.90;99.90;;;;;;7373610;19;20903;-68
2024/01/20 10:42:50;;;;;;;36.60;22.60;;;1.80;99.90;;;;;;7365297;19;20011;-68
2024/01/20 10:45:19;;;;;;;34.75;21.63;;;2.00;99.90;;;;;;7376680;19;20070;-70
2024/01/20 10:47:57;;;;;;;34.42;20.80;;;2.00;99.90;;;;;;7376387;19;20014;-69
2024/01/20 10:50:25;;;;;;;35.08;22.05;;;2.00;99.90;;;;;;7377134;19;20018;-68
2024/01/20 10:52:51;;;;;;;36.42;21.45;;;2.00;99.90;;;;;;7373907;19;20488;-68
2024/01/20 10:55:19;;;;;;;32.00;21.40;;;2.00;99.90;;;;;;7377125;19;20896;-68
2024/01/20 10:57:50;;;;;;;32.55;21.20;;;2.00;99.90;;;;;;7376487;19;20019;-69
2024/01/20 11:00:17;;;;;;;31.02;20.35;;;2.00;99.90;;;;;;7380037;19;20360;-69
2024/01/20 11:02:44;;;;;;;30.25;20.38;;;2.10;99.90;;;;;;7374661;19;20599;-65
2024/01/20 11:05:21;;;;;;;37.55;22.48;;;2.10;99.90;;;;;;7378869;19;20495;-65
2024/01/20 11:08:07;;;;;;;32.67;21.80;;;2.10;99.90;;;;;;7374387;19;20010;-66
2024/01/20 11:10:41;;;;;;;33.35;20.88;;;2.20;99.90;;;;;;7373218;19;20035;-63
2024/01/20 11:13:10;;;;;;;37.70;23.25;;;2.20;99.90;;;;;;7375405;19;20014;-64
2024/01/20 11:15:38;;;;;;;31.70;21.05;;;2.10;99.90;;;;;;7378690;19;20031;-65
2024/01/20 11:18:26;;;;;;;34.55;22.23;;;2.20;99.90;;;;;;7376377;19;20031;-65
2024/01/20 11:21:03;;;;;;;33.95;20.75;;;2.20;99.90;;;;;;7378019;19;20023;-65
2024/01/20 11:23:30;;;;;;;33.17;21.50;;;2.10;99.90;;;;;;7376285;19;20014;-64
2024/01/20 11:25:58;;;;;;;29.48;19.23;;;2.20;99.90;;;;;;7373075;19;20052;-64
2024/01/20 11:28:35;;;;;;;36.03;23.25;;;2.10;99.90;;;;;;7376025;19;20017;-64
2024/01/20 11:31:03;;;;;;;31.80;21.50;;;2.10;99.90;;;;;;7376221;19;20780;-65
2024/01/20 11:33:31;;;;;;;33.38;21.30;;;2.10;99.90;;;;;;7373391;19;20426;-64
2024/01/20 11:35:59;;;;;;;33.75;22.40;;;2.10;99.90;;;;;;7371984;19;20018;-65
2024/01/20 11:38:27;;;;;;;35.28;21.75;;;2.10;99.90;;;;;;7373121;19;20026;-64
2024/01/20 11:41:01;;;;;;;34.08;21.15;;;2.20;99.90;;;;;;7373320;19;20532;-66
2024/01/20 11:43:27;;;;;;;35.05;22.48;;;2.10;99.90;;;;;;7371646;19;20018;-65
2024/01/20 11:45:56;;;;;;;29.08;20.33;;;2.10;99.90;;;;;;7370325;19;20018;-66
2024/01/20 11:48:23;;;;;;;34.83;22.67;;;2.10;99.90;;;;;;7371419;19;20022;-66
2024/01/20 11:50:50;;;;;;;33.65;22.17;;;2.20;99.90;;;;;;7371696;19;20082;-65
2024/01/20 11:53:20;;;;;;;33.35;22.08;;;2.20;99.90;;;;;;7372264;19;20483;-65
2024/01/20 11:55:59;;;;;;;34.55;22.23;;;2.20;99.90;;;;;;7372327;19;20018;-65
2024/01/20 11:58:26;;;;;;;32.88;21.90;;;2.20;99.90;;;;;;7375271;19;20022;-66
2024/01/20 12:00:53;;;;;;;33.25;22.10;;;2.30;99.90;;;;;;7374140;19;20046;-65
2024/01/20 12:03:23;;;;;;;34.20;21.92;;;2.30;99.90;;;;;;7373216;19;20018;-65
2024/01/20 12:05:50;;;;;;;33.85;22.95;;;2.30;99.90;;;;;;7370848;19;20024;-65
2024/01/20 12:08:16;;;;;;;32.78;21.17;;;2.30;99.90;;;;;;7375955;19;20046;-64
2024/01/20 12:10:42;;;;;;;37.95;23.55;;;2.40;99.90;;;;;;7372641;19;20090;-66
2024/01/20 12:13:12;;;;;;;32.80;21.48;;;2.40;99.90;;;;;;7374629;19;20014;-66
2024/01/20 12:15:39;;;;;;;34.33;20.65;;;2.40;99.90;;;;;;7375316;19;20888;-67
2024/01/20 12:18:06;;;;;;;31.45;21.60;;;2.50;99.90;;;;;;7372844;19;20023;-64
2024/01/20 12:20:34;;;;;;;34.67;22.52;;;2.50;99.90;;;;;;7373310;19;20050;-67
2024/01/20 12:23:00;;;;;;;31.88;21.10;;;2.60;99.90;;;;;;7368226;19;20126;-67
2024/01/20 12:25:27;;;;;;;31.60;20.88;;;2.60;99.90;;;;;;7369463;19;20014;-67
2024/01/20 12:27:54;;;;;;;32.47;21.17;;;2.60;99.90;;;;;;7371031;19;20015;-66
2024/01/20 12:30:20;;;;;;;30.90;19.00;;;2.70;99.90;;;;;;7367777;19;20033;-65
2024/01/20 12:32:46;;;;;;;32.67;21.33;;;2.70;99.90;;;;;;7357049;19;20542;-64
2024/01/20 12:35:18;;;;;;;29.60;20.05;;;2.70;99.90;;;;;;7366651;19;20023;-67